This is the latest recevied weather packets stored in our database for station/object ON8GE-13. If no packets are shown the sender has not sent any weather packets the latest 10 day(s).
| Time | Temp. | Humidity | Pressure | Rain* | Wind** | Luminosity | Snow |
|---|---|---|---|---|---|---|---|
| 1777827060 | 13.89° C | 98% | 1011.9 hPa | 0.51 mm | - | 12 W/m² | - |
| 1777824662 | 13.89° C | 97% | 1011.9 hPa | 0.25 mm | - | 50 W/m² | - |
| 1777820463 | 15° C | 95% | 1012 hPa | 0 mm | - | 174 W/m² | - |
| 1777819260 | 15° C | 95% | 1012 hPa | 0 mm | - | 168 W/m² | - |
| 1777818058 | 15° C | 96% | 1012.1 hPa | 0.51 mm | - | 216 W/m² | - |
| 1777816861 | 14.44° C | 98% | 1012.2 hPa | 1.52 mm | - | 210 W/m² | - |
| 1777813863 | 13.89° C | 98% | 1012.7 hPa | 1.27 mm | - | 176 W/m² | - |
| 1777803059 | 14.44° C | 98% | 1012.8 hPa | 2.29 mm | - | 164 W/m² | - |
| 1777797660 | 15° C | 89% | 1012.7 hPa | 0.25 mm | - | 180 W/m² | - |
| 1777797056 | 15° C | 87% | 1012.7 hPa | 0 mm | - | 160 W/m² | - |
| 1777790456 | 15° C | 85% | 1012 hPa | 0 mm | - | 70 W/m² | - |
| 1777789256 | 14.44° C | 85% | 1011.9 hPa | 0 mm | - | 54 W/m² | - |
| 1777779055 | 13.89° C | 92% | 1012.5 hPa | 0 mm | - | 0 W/m² | - |
| 1777774854 | 13.89° C | 94% | 1012.7 hPa | 0 mm | - | 0 W/m² | - |
| 1777773655 | 13.33° C | 93% | 1012.9 hPa | 0 mm | - | 0 W/m² | - |
| 1777769457 | 14.44° C | 92% | 1013.3 hPa | 0 mm | - | 0 W/m² | - |
| 1777767058 | 14.44° C | 92% | 1013.6 hPa | 0 mm | - | 0 W/m² | - |
| 1777761063 | 14.44° C | 90% | 1013.9 hPa | 0 mm | - | 0 W/m² | - |
| 1777758066 | 15° C | 88% | 1014 hPa | 0 mm | - | 0 W/m² | - |
| 1777755673 | 15.56° C | 84% | 1014 hPa | 0 mm | - | 0 W/m² | - |
| 1777753868 | 16.67° C | 80% | 1014.3 hPa | 0 mm | - | 0 W/m² | - |
| 1777752074 | 17.78° C | 75% | 1014.3 hPa | 0 mm | - | 0 W/m² | - |
| 1777747265 | 19.44° C | 70% | 1014.1 hPa | 0 mm | - | 16 W/m² | - |
| 1777746063 | 20° C | 65% | 1014.1 hPa | 0 mm | - | 32 W/m² | - |
| 1777741264 | 22.22° C | 54% | 1014 hPa | 0 mm | - | 230 W/m² | - |
* Rain latest hour (hover to see other rain measurements)
** Current wind speed in m/s (hover to see current wind gust speed)